^^
Your Local Weather - Clay, NY Station Historical Data
Daily Summary for April 17, 2017 Units:  Metric    English   Both
« Previous Day
Next Day »
Daily Weekly Monthly Yearly Custom
  High: Low: Average:
Temperature: 16.4 °C 4.1 °C 10.1 °C
Dew Point: 11.7 °C 0.9 °C 5.3 °C
Humidity: 89% 53% 73%
Wind Speed: 11.3km/h 0km/h 5km/h
Wind Gust: 19.3km/h - -
Wind- - WNW
Pressure: 1022.9 hPa 1008.7 hPa -
Precipitation: 1.02 mm    
Historical Graphs
 
 
Tabular Data for April 17, 2017
Time Temperature Dew Point Pressure Wind Wind Speed Wind Gust Humidity Rainfall Rate (Hourly) solar
00:00 16.4 °C 11.6 °C 1008.7 hPa WNW 4.8 km/h 11.3 km/h 73% 13.46 mm 0 W/m2
00:06 14.9 °C 11.7 °C 1009 hPa NW 11.3 km/h 11.3 km/h 81% 3.56 mm 0 W/m2
00:12 14.3 °C 11.6 °C 1009 hPa WNW 8 km/h 9.7 km/h 84% 2.03 mm 0 W/m2
00:18 13.9 °C 11.6 °C 1009.4 hPa WNW 8 km/h 12.9 km/h 86% 1.02 mm 0 W/m2
00:24 13.7 °C 11.6 °C 1009.7 hPa WNW 8 km/h 8 km/h 87% 1.02 mm 0 W/m2
00:30 13.5 °C 11.4 °C 1009.7 hPa West 6.4 km/h 8 km/h 87% 2.79 mm 0 W/m2
00:36 13.4 °C 11.5 °C 1009.7 hPa WNW 6.4 km/h 8 km/h 88% 1.27 mm 0 W/m2
00:42 13.4 °C 11.4 °C 1009.7 hPa WNW 6.4 km/h 9.7 km/h 88% 1.27 mm 0 W/m2
00:48 13.4 °C 11.6 °C 1009.7 hPa NW 6.4 km/h 9.7 km/h 89% 1.27 mm 0 W/m2
00:56 13.3 °C 11.6 °C 1009.7 hPa NW 4.8 km/h 6.4 km/h 89% 0 mm 0 W/m2
01:03 13.3 °C 11.5 °C 1009.7 hPa NW 3.2 km/h 9.7 km/h 89% 0 mm 0 W/m2
01:08 13.2 °C 11.4 °C 1009.7 hPa West 4.8 km/h 9.7 km/h 89% 0 mm 0 W/m2
01:20 13.1 °C 11.3 °C 1009.7 hPa NW 3.2 km/h 4.8 km/h 89% 0 mm 0 W/m2
01:26 13.1 °C 11.3 °C 1009.7 hPa NW 4.8 km/h 4.8 km/h 89% 0 mm 0 W/m2
01:32 13 °C 11.2 °C 1009.7 hPa WNW 3.2 km/h 8 km/h 89% 0 mm 0 W/m2
01:38 12.9 °C 11.2 °C 1009.7 hPa WNW 4.8 km/h 8 km/h 89% 0 mm 0 W/m2
01:44 12.9 °C 11.2 °C 1009.7 hPa WNW 4.8 km/h 6.4 km/h 89% 0 mm 0 W/m2
01:50 12.9 °C 11.1 °C 1009.7 hPa WNW 4.8 km/h 4.8 km/h 89% 0 mm 0 W/m2
01:56 12.8 °C 11.1 °C 1009.7 hPa WNW 3.2 km/h 4.8 km/h 89% 0 mm 0 W/m2
02:02 12.7 °C 10.8 °C 1009.7 hPa WNW 3.2 km/h 4.8 km/h 88% 0 mm 0 W/m2
02:08 12.6 °C 10.7 °C 1009.7 hPa WNW 4.8 km/h 4.8 km/h 88% 0 mm 0 W/m2
02:14 12.6 °C 10.6 °C 1009.7 hPa WNW 4.8 km/h 4.8 km/h 88% 0 mm 0 W/m2
02:20 12.5 °C 10.6 °C 1009.7 hPa West 4.8 km/h 4.8 km/h 88% 0 mm 0 W/m2
02:26 12.4 °C 10.3 °C 1009.7 hPa WNW 4.8 km/h 8 km/h 87% 0 mm 0 W/m2
02:32 12.4 °C 10.3 °C 1010 hPa West 4.8 km/h 4.8 km/h 87% 0 mm 0 W/m2
02:38 12.3 °C 10.2 °C 1010 hPa WNW 4.8 km/h 8 km/h 87% 0 mm 0 W/m2
02:44 12.2 °C 9.9 °C 1010 hPa WNW 8 km/h 9.7 km/h 86% 0 mm 0 W/m2
02:50 12 °C 9.6 °C 1010 hPa WNW 8 km/h 8 km/h 85% 0 mm 0 W/m2
02:56 11.8 °C 9.4 °C 1010 hPa WNW 6.4 km/h 16.1 km/h 85% 0 mm 0 W/m2
03:02 11.7 °C 9.2 °C 1010.4 hPa WNW 6.4 km/h 8 km/h 85% 0 mm 0 W/m2
03:08 11.6 °C 9.1 °C 1010.4 hPa NW 8 km/h 9.7 km/h 85% 0 mm 0 W/m2
03:14 11.4 °C 8.9 °C 1010.7 hPa WNW 8 km/h 9.7 km/h 85% 0 mm 0 W/m2
03:20 11.2 °C 8.8 °C 1010.7 hPa WNW 8 km/h 8 km/h 85% 0 mm 0 W/m2
03:26 11.1 °C 8.7 °C 1010.7 hPa NW 6.4 km/h 8 km/h 85% 0 mm 0 W/m2
03:32 10.9 °C 8.5 °C 1010.7 hPa WNW 6.4 km/h 6.4 km/h 85% 0 mm 0 W/m2
03:38 10.9 °C 8.4 °C 1011.1 hPa WNW 4.8 km/h 6.4 km/h 85% 0 mm 0 W/m2
03:44 10.9 °C 8.6 °C 1011.1 hPa WNW 4.8 km/h 4.8 km/h 86% 0 mm 0 W/m2
03:50 10.8 °C 8.4 °C 1011.4 hPa SW 4.8 km/h 4.8 km/h 85% 0 mm 0 W/m2
03:56 10.7 °C 8.3 °C 1011.4 hPa WNW 4.8 km/h 11.3 km/h 85% 0 mm 0 W/m2
04:02 10.7 °C 8.2 °C 1011.4 hPa NW 6.4 km/h 11.3 km/h 85% 0 mm 0 W/m2
04:08 10.6 °C 8.2 °C 1011.4 hPa West 6.4 km/h 11.3 km/h 85% 0 mm 0 W/m2
04:14 10.5 °C 8.1 °C 1011.4 hPa WNW 6.4 km/h 8 km/h 85% 0 mm 0 W/m2
04:20 10.4 °C 8.2 °C 1011.4 hPa WSW 4.8 km/h 4.8 km/h 86% 0 mm 0 W/m2
04:26 10.4 °C 8.2 °C 1011.7 hPa WNW 4.8 km/h 6.4 km/h 86% 0 mm 0 W/m2
04:32 10.4 °C 8.2 °C 1011.7 hPa NW 4.8 km/h 8 km/h 86% 0 mm 0 W/m2
04:38 10.3 °C 8.1 °C 1011.7 hPa West 4.8 km/h 8 km/h 86% 0 mm 0 W/m2
04:44 10.3 °C 8.1 °C 1011.7 hPa WNW 4.8 km/h 8 km/h 86% 0 mm 0 W/m2
04:50 10.2 °C 7.8 °C 1011.7 hPa WNW 4.8 km/h 6.4 km/h 85% 0 mm 0 W/m2
04:56 10.1 °C 7.7 °C 1011.7 hPa WNW 6.4 km/h 6.4 km/h 85% 0 mm 0 W/m2
05:02 10.1 °C 7.7 °C 1011.7 hPa WNW 3.2 km/h 4.8 km/h 85% 0 mm 0 W/m2
05:08 9.9 °C 7.6 °C 1011.7 hPa WNW 3.2 km/h 4.8 km/h 85% 0 mm 0 W/m2
05:14 9.9 °C 7.6 °C 1011.7 hPa WNW 3.2 km/h 3.2 km/h 85% 0 mm 0 W/m2
05:22 9.9 °C 7.6 °C 1012.1 hPa WSW 4.8 km/h 9.7 km/h 85% 0 mm 0 W/m2
05:28 9.9 °C 7.5 °C 1012.4 hPa WSW 3.2 km/h 9.7 km/h 85% 0 mm 0 W/m2
05:34 9.9 °C 7.5 °C 1012.4 hPa WNW 3.2 km/h 3.2 km/h 85% 0 mm 0 W/m2
05:40 9.9 °C 7.5 °C 1012.4 hPa WNW 3.2 km/h 4.8 km/h 85% 0 mm 0 W/m2
05:46 9.8 °C 7.4 °C 1012.4 hPa West 3.2 km/h 4.8 km/h 85% 0 mm 0 W/m2
05:52 9.8 °C 7.4 °C 1012.4 hPa WSW 3.2 km/h 4.8 km/h 85% 0 mm 0 W/m2
05:58 9.7 °C 7.3 °C 1012.4 hPa WNW 4.8 km/h 9.7 km/h 85% 0 mm 0 W/m2
06:04 9.7 °C 7.3 °C 1012.4 hPa West 4.8 km/h 6.4 km/h 85% 0 mm 0 W/m2
06:10 9.6 °C 7.2 °C 1012.4 hPa West 4.8 km/h 6.4 km/h 85% 0 mm 0 W/m2
06:16 9.5 °C 7.1 °C 1012.4 hPa WSW 3.2 km/h 6.4 km/h 85% 0 mm 0 W/m2
06:22 9.4 °C 7.1 °C 1012.8 hPa WSW 3.2 km/h 3.2 km/h 85% 0 mm 7 W/m2
06:28 9.4 °C 7 °C 1012.8 hPa West 1.6 km/h 3.2 km/h 85% 0 mm 12 W/m2
06:34 9.3 °C 6.9 °C 1012.8 hPa WNW 3.2 km/h 3.2 km/h 85% 0 mm 16 W/m2
06:40 9.3 °C 7.1 °C 1012.8 hPa WNW 3.2 km/h 3.2 km/h 86% 0 mm 26 W/m2
06:46 9.3 °C 7.1 °C 1012.8 hPa Calm   3.2 km/h 86% 0 mm 33 W/m2
06:52 9.2 °C 6.9 °C 1013.1 hPa WNW 1.6 km/h 1.6 km/h 86% 0 mm 44 W/m2
07:00 9.2 °C 6.9 °C 1013.1 hPa WNW 1.6 km/h 1.6 km/h 86% 0 mm 70 W/m2
07:06 9.3 °C 7.1 °C 1013.1 hPa WNW 1.6 km/h 1.6 km/h 86% 0 mm 63 W/m2
07:12 9.3 °C 7.1 °C 1013.1 hPa Calm   1.6 km/h 86% 0 mm 74 W/m2
07:18 9.3 °C 7.1 °C 1013.1 hPa Calm   3.2 km/h 86% 0 mm 69 W/m2
07:24 9.4 °C 7.4 °C 1013.4 hPa Calm     87% 0 mm 102 W/m2
07:30 9.6 °C 7.6 °C 1013.4 hPa WNW 1.6 km/h 1.6 km/h 87% 0 mm 91 W/m2
07:36 9.8 °C 7.6 °C 1013.4 hPa WNW 1.6 km/h 3.2 km/h 86% 0 mm 200 W/m2
07:42 10.2 °C 8 °C 1013.4 hPa WNW 1.6 km/h 3.2 km/h 86% 0 mm 237 W/m2
07:48 10.5 °C 7.7 °C 1013.4 hPa WSW 3.2 km/h 6.4 km/h 83% 0 mm 207 W/m2
07:54 10.7 °C 7.8 °C 1013.4 hPa West 3.2 km/h 6.4 km/h 82% 0 mm 230 W/m2
08:00 10.6 °C 6.9 °C 1013.4 hPa West 4.8 km/h 4.8 km/h 78% 0 mm 107 W/m2
08:06 10.4 °C 6.3 °C 1013.8 hPa NNW 8 km/h 17.7 km/h 76% 0 mm 120 W/m2
08:12 10.3 °C 6.1 °C 1014.1 hPa West 8 km/h 8 km/h 75% 0 mm 111 W/m2
08:18 10.4 °C 6.2 °C 1014.1 hPa West 6.4 km/h 9.7 km/h 75% 0 mm 165 W/m2
08:24 10.4 °C 6 °C 1014.4 hPa NW 8 km/h 9.7 km/h 74% 0 mm 330 W/m2
08:30 10.4 °C 5.4 °C 1014.4 hPa West 9.7 km/h 12.9 km/h 71% 0 mm 267 W/m2
08:36 10.4 °C 5.6 °C 1014.8 hPa NNW 9.7 km/h 19.3 km/h 72% 0 mm 378 W/m2
08:42 10.4 °C 5.4 °C 1014.8 hPa West 9.7 km/h 12.9 km/h 71% 0 mm 255 W/m2
08:50 10.4 °C 5.3 °C 1014.8 hPa WNW 9.7 km/h 9.7 km/h 71% 0 mm 257 W/m2
08:56 10.6 °C 5.5 °C 1014.8 hPa NW 8 km/h 9.7 km/h 71% 0 mm 267 W/m2
09:02 10.7 °C 5.2 °C 1014.8 hPa WNW 6.4 km/h 11.3 km/h 69% 0 mm 387 W/m2
09:08 10.8 °C 5.4 °C 1015.1 hPa WNW 8 km/h 11.3 km/h 69% 0 mm 403 W/m2
09:14 11.1 °C 5.6 °C 1015.1 hPa WNW 8 km/h 9.7 km/h 69% 0 mm 107 W/m2
09:20 10.9 °C 5.3 °C 1015.1 hPa NW 6.4 km/h 6.4 km/h 68% 0 mm 545 W/m2
09:26 11.2 °C 5.7 °C 1015.1 hPa West 6.4 km/h 6.4 km/h 69% 0 mm 227 W/m2
09:32 11 °C 5.5 °C 1015.1 hPa WNW 8 km/h 19.3 km/h 69% 0 mm 705 W/m2
09:38 10.9 °C 5.3 °C 1015.1 hPa NW 8 km/h 19.3 km/h 68% 0 mm 169 W/m2
09:44 10.8 °C 5.5 °C 1015.5 hPa WNW 6.4 km/h 8 km/h 70% 0 mm 225 W/m2
09:50 10.7 °C 5.6 °C 1015.5 hPa NNW 6.4 km/h 9.7 km/h 71% 0 mm 309 W/m2
09:56 10.4 °C 5.3 °C 1015.8 hPa NW 9.7 km/h 11.3 km/h 71% 0 mm 162 W/m2
10:02 10.8 °C 5.8 °C 1015.8 hPa WSW 8 km/h 9.7 km/h 71% 0 mm 858 W/m2
10:08 10.8 °C 5.5 °C 1015.8 hPa WNW 8 km/h 9.7 km/h 70% 0 mm 295 W/m2
10:14 10.9 °C 5.7 °C 1016.1 hPa NNW 8 km/h 14.5 km/h 70% 0 mm 454 W/m2
10:20 11.8 °C 6.1 °C 1016.1 hPa WNW 8 km/h 8 km/h 68% 0 mm 949 W/m2
10:26 11.1 °C 5.4 °C 1016.1 hPa WNW 6.4 km/h 8 km/h 68% 0 mm 216 W/m2
10:32 10.9 °C 5.5 °C 1016.1 hPa WSW 6.4 km/h 12.9 km/h 69% 0 mm 487 W/m2
10:38 11.1 °C 5.8 °C 1016.1 hPa WNW 6.4 km/h 12.9 km/h 70% 0 mm 251 W/m2
10:44 10.7 °C 5.2 °C 1016.1 hPa West 4.8 km/h 11.3 km/h 69% 0 mm 879 W/m2
10:50 11.4 °C 5.9 °C 1016.1 hPa NW 6.4 km/h 6.4 km/h 69% 0 mm 895 W/m2
10:56 11 °C 5.3 °C 1016.1 hPa West 8 km/h 9.7 km/h 68% 0 mm 895 W/m2
11:02 10.6 °C 4.7 °C 1016.5 hPa WNW 8 km/h 8 km/h 67% 0 mm 243 W/m2
11:08 10.8 °C 5.2 °C 1016.8 hPa NNW 8 km/h 11.3 km/h 68% 0 mm 243 W/m2
11:14 10.7 °C 5.2 °C 1016.8 hPa NNW 8 km/h 9.7 km/h 69% 0 mm 251 W/m2
11:20 11.5 °C 6.6 °C 1016.8 hPa WNW 8 km/h 8 km/h 72% 0 mm 1035 W/m2
11:26 11.1 °C 5.6 °C 1016.8 hPa NW 6.4 km/h 9.7 km/h 69% 0 mm 1069 W/m2
11:32 10.7 °C 5.1 °C 1016.8 hPa NW 8 km/h 8 km/h 68% 0 mm 292 W/m2
11:38 10.8 °C 5.4 °C 1016.8 hPa WNW 8 km/h 11.3 km/h 69% 0 mm 292 W/m2
11:44 10.6 °C 4.9 °C 1016.8 hPa WNW 9.7 km/h 12.9 km/h 68% 0 mm 264 W/m2
11:50 10.5 °C 5.3 °C 1016.8 hPa WNW 9.7 km/h 9.7 km/h 70% 0 mm 239 W/m2
11:56 10.5 °C 5.3 °C 1017.2 hPa North 6.4 km/h 9.7 km/h 70% 0 mm 267 W/m2
12:02 10.4 °C 4.7 °C 1017.2 hPa NW 6.4 km/h 11.3 km/h 68% 0 mm 316 W/m2
12:08 10.6 °C 4.9 °C 1017.5 hPa WNW 8 km/h 11.3 km/h 68% 0 mm 1100 W/m2
12:20 10.4 °C 4.3 °C 1017.5 hPa WNW 8 km/h 8 km/h 66% 0 mm 250 W/m2
12:26 11.2 °C 5.3 °C 1017.5 hPa West 8 km/h 9.7 km/h 67% 0 mm 1048 W/m2
12:32 11.2 °C 5.3 °C 1017.5 hPa WNW 8 km/h 11.3 km/h 67% 0 mm 510 W/m2
12:38 11.4 °C 4.6 °C 1017.5 hPa West 6.4 km/h 11.3 km/h 63% 0 mm 1179 W/m2
12:44 11.3 °C 5.2 °C 1017.5 hPa WNW 6.4 km/h 14.5 km/h 66% 0 mm 1116 W/m2
12:50 11.4 °C 5.7 °C 1017.5 hPa NW 8 km/h 8 km/h 68% 0 mm 1120 W/m2
12:56 11.3 °C 4.9 °C 1017.5 hPa NW 8 km/h 12.9 km/h 65% 0 mm 313 W/m2
13:02 10.9 °C 5 °C 1017.5 hPa NNW 8 km/h 12.9 km/h 67% 0 mm 360 W/m2
13:08 10.8 °C 4.7 °C 1017.5 hPa WNW 6.4 km/h 12.9 km/h 66% 0 mm 244 W/m2
13:14 11.4 °C 4.6 °C 1017.5 hPa WNW 6.4 km/h 12.9 km/h 63% 0 mm 997 W/m2
13:20 11.4 °C 4.9 °C 1017.5 hPa WNW 8 km/h 8 km/h 64% 0 mm 1030 W/m2
13:26 12.1 °C 5.2 °C 1017.5 hPa WNW 8 km/h 8 km/h 63% 0 mm 1088 W/m2
13:32 11.7 °C 4.9 °C 1017.5 hPa North 8 km/h 9.7 km/h 63% 0 mm 1088 W/m2
13:38 11.9 °C 5.5 °C 1017.5 hPa West 8 km/h 11.3 km/h 65% 0 mm 1053 W/m2
13:44 11.8 °C 5.2 °C 1017.5 hPa West 8 km/h 8 km/h 64% 0 mm 1060 W/m2
13:50 11.7 °C 5.1 °C 1017.5 hPa NNW 8 km/h 11.3 km/h 64% 0 mm 1072 W/m2
13:56 11.4 °C 4.9 °C 1017.8 hPa WNW 9.7 km/h 11.3 km/h 64% 0 mm 1032 W/m2
14:02 10.8 °C 4.3 °C 1017.8 hPa West 8 km/h 9.7 km/h 64% 0 mm 1018 W/m2
14:08 11.4 °C 5.3 °C 1017.8 hPa WNW 8 km/h 11.3 km/h 66% 0 mm 1044 W/m2
14:14 11.2 °C 4.2 °C 1017.8 hPa WNW 8 km/h 8 km/h 62% 0 mm 990 W/m2
14:20 11.8 °C 4.8 °C 1017.8 hPa West 8 km/h 8 km/h 62% 0 mm 976 W/m2
14:26 11 °C 4.2 °C 1017.8 hPa North 8 km/h 12.9 km/h 63% 0 mm 965 W/m2
14:32 10.9 °C 3.9 °C 1017.8 hPa WNW 8 km/h 8 km/h 62% 0 mm 283 W/m2
14:38 10.8 °C 4.1 °C 1017.8 hPa West 8 km/h 8 km/h 63% 0 mm 278 W/m2
14:44 11.1 °C 4.8 °C 1017.8 hPa WNW 8 km/h 12.9 km/h 65% 0 mm 933 W/m2
14:50 11.2 °C 3.7 °C 1017.8 hPa West 8 km/h 8 km/h 60% 0 mm 912 W/m2
14:56 11.6 °C 4.5 °C 1017.8 hPa NW 8 km/h 11.3 km/h 62% 0 mm 911 W/m2
15:02 11.3 °C 4.3 °C 1017.8 hPa WNW 8 km/h 8 km/h 62% 0 mm 285 W/m2
15:08 11.4 °C 5.1 °C 1018.2 hPa WNW 8 km/h 11.3 km/h 65% 0 mm 828 W/m2
15:14 11.2 °C 4.2 °C 1018.2 hPa West 6.4 km/h 8 km/h 62% 0 mm 1035 W/m2
15:20 11.7 °C 4.7 °C 1018.2 hPa WNW 6.4 km/h 6.4 km/h 62% 0 mm 991 W/m2
15:26 11.3 °C 4.3 °C 1018.2 hPa WSW 6.4 km/h 6.4 km/h 62% 0 mm 220 W/m2
15:32 10.9 °C 3.7 °C 1018.2 hPa WNW 8 km/h 9.7 km/h 61% 0 mm 257 W/m2
15:38 10.8 °C 3.8 °C 1018.2 hPa NW 6.4 km/h 9.7 km/h 62% 0 mm 308 W/m2
15:44 11.3 °C 4.6 °C 1017.8 hPa West 6.4 km/h 8 km/h 63% 0 mm 812 W/m2
15:50 11.4 °C 3.7 °C 1018.2 hPa NW 6.4 km/h 8 km/h 59% 0 mm 756 W/m2
15:56 11.8 °C 4.3 °C 1018.2 hPa NW 6.4 km/h 8 km/h 60% 0 mm 715 W/m2
16:04 11.6 °C 3.6 °C 1018.2 hPa NW 6.4 km/h 11.3 km/h 58% 0 mm 714 W/m2
16:10 10.9 °C 3.9 °C 1018.2 hPa WNW 8 km/h 8 km/h 62% 0 mm 107 W/m2
16:16 11.3 °C 4.3 °C 1018.2 hPa WNW 8 km/h 8 km/h 62% 0 mm 780 W/m2
16:22 11.6 °C 3.6 °C 1018.5 hPa WSW 8 km/h 8 km/h 58% 0 mm 148 W/m2
16:28 11.1 °C 3.9 °C 1018.5 hPa WNW 8 km/h 11.3 km/h 61% 0 mm 677 W/m2
16:34 11.6 °C 4.3 °C 1018.5 hPa NNW 6.4 km/h 8 km/h 61% 0 mm 631 W/m2
16:40 11.4 °C 3.4 °C 1018.5 hPa WNW 8 km/h 8 km/h 58% 0 mm 568 W/m2
16:46 11.2 °C 2.7 °C 1018.5 hPa West 8 km/h 8 km/h 56% 0 mm 246 W/m2
16:52 11.4 °C 3.2 °C 1018.5 hPa WNW 6.4 km/h 8 km/h 57% 0 mm 522 W/m2
16:58 11.6 °C 3.3 °C 1018.5 hPa NW 6.4 km/h 8 km/h 57% 0 mm 513 W/m2
17:04 11.8 °C 3.6 °C 1018.8 hPa NW 6.4 km/h 9.7 km/h 57% 0 mm 489 W/m2
17:10 11.7 °C 3.9 °C 1018.8 hPa WNW 6.4 km/h 6.4 km/h 59% 0 mm 469 W/m2
17:16 11.6 °C 3.1 °C 1018.8 hPa West 6.4 km/h 6.4 km/h 56% 0 mm 448 W/m2
17:22 11.3 °C 3.1 °C 1018.8 hPa WNW 8 km/h 8 km/h 57% 0 mm 429 W/m2
17:28 11.2 °C 3.3 °C 1018.8 hPa West 6.4 km/h 9.7 km/h 58% 0 mm 376 W/m2
17:34 11.5 °C 3.3 °C 1018.8 hPa NW 4.8 km/h 8 km/h 57% 0 mm 396 W/m2
17:40 11.4 °C 3.2 °C 1018.8 hPa WNW 4.8 km/h 12.9 km/h 57% 0 mm 374 W/m2
17:46 11.3 °C 2.8 °C 1018.8 hPa West 6.4 km/h 12.9 km/h 56% 0 mm 309 W/m2
17:52 11.2 °C 2.7 °C 1018.8 hPa WNW 6.4 km/h 6.4 km/h 56% 0 mm 211 W/m2
17:58 11.1 °C 2.2 °C 1019.2 hPa West 6.4 km/h 6.4 km/h 54% 0 mm 258 W/m2
18:04 11.1 °C 2.6 °C 1019.2 hPa WNW 6.4 km/h 14.5 km/h 56% 0 mm 211 W/m2
18:10 10.9 °C 2.2 °C 1019.2 hPa West 6.4 km/h 6.4 km/h 55% 0 mm 185 W/m2
18:16 10.9 °C 2.2 °C 1019.5 hPa NW 6.4 km/h 8 km/h 55% 0 mm 185 W/m2
18:22 10.6 °C 2.1 °C 1019.5 hPa NW 8 km/h 8 km/h 56% 0 mm 139 W/m2
18:28 10.3 °C 1.9 °C 1019.5 hPa WNW 6.4 km/h 9.7 km/h 56% 0 mm 104 W/m2
18:34 10.3 °C 1.4 °C 1019.5 hPa NW 6.4 km/h 9.7 km/h 54% 0 mm 111 W/m2
18:40 10.3 °C 1.4 °C 1019.5 hPa WNW 6.4 km/h 11.3 km/h 54% 0 mm 121 W/m2
18:46 10.1 °C 0.9 °C 1019.5 hPa NNW 8 km/h 14.5 km/h 53% 0 mm 86 W/m2
18:52 10.1 °C 1.4 °C 1019.5 hPa West 6.4 km/h 6.4 km/h 55% 0 mm 97 W/m2
18:58 9.9 °C 1.3 °C 1019.5 hPa WNW 4.8 km/h 12.9 km/h 55% 0 mm 91 W/m2
19:04 9.6 °C 1.5 °C 1019.5 hPa WNW 4.8 km/h 8 km/h 57% 0 mm 65 W/m2
19:10 9.5 °C 1.6 °C 1019.5 hPa NW 3.2 km/h 8 km/h 58% 0 mm 30 W/m2
19:16 9.3 °C 1.4 °C 1019.5 hPa NNW 3.2 km/h 8 km/h 58% 0 mm 19 W/m2
19:22 9.1 °C 1.2 °C 1019.9 hPa WNW 3.2 km/h 4.8 km/h 58% 0 mm 16 W/m2
19:28 8.9 °C 1.1 °C 1019.9 hPa WNW 3.2 km/h 6.4 km/h 58% 0 mm 14 W/m2
19:34 8.8 °C 1.3 °C 1019.9 hPa WNW 4.8 km/h 6.4 km/h 59% 0 mm 12 W/m2
19:40 8.7 °C 1.2 °C 1020.2 hPa NW 3.2 km/h 3.2 km/h 59% 0 mm 9 W/m2
19:46 8.6 °C 1.4 °C 1020.2 hPa NW 1.6 km/h 3.2 km/h 61% 0 mm 5 W/m2
19:52 8.3 °C 1.4 °C 1020.2 hPa NW 1.6 km/h 1.6 km/h 62% 0 mm 0 W/m2
19:58 8.1 °C 1.2 °C 1020.2 hPa NW 1.6 km/h 1.6 km/h 62% 0 mm 0 W/m2
20:04 7.9 °C 1.3 °C 1020.2 hPa Calm   1.6 km/h 63% 0 mm 0 W/m2
20:10 7.7 °C 1.3 °C 1020.5 hPa Calm     64% 0 mm 0 W/m2
20:16 7.6 °C 1.4 °C 1020.5 hPa Calm   1.6 km/h 65% 0 mm 0 W/m2
20:22 7.4 °C 1.2 °C 1020.5 hPa Calm   1.6 km/h 65% 0 mm 0 W/m2
20:28 7.3 °C 1.3 °C 1020.5 hPa Calm   1.6 km/h 66% 0 mm 0 W/m2
20:34 7.1 °C 1.2 °C 1020.5 hPa Calm     66% 0 mm 0 W/m2
20:40 6.9 °C 1.2 °C 1020.9 hPa Calm     67% 0 mm 0 W/m2
20:46 6.8 °C 1.3 °C 1020.9 hPa Calm     68% 0 mm 0 W/m2
20:52 6.6 °C 1.3 °C 1020.9 hPa Calm     69% 0 mm 0 W/m2
20:58 6.4 °C 1.2 °C 1021.2 hPa Calm     69% 0 mm 0 W/m2
21:04 6.3 °C 1 °C 1021.2 hPa Calm     69% 0 mm 0 W/m2
21:10 6.2 °C 1.1 °C 1021.2 hPa Calm     70% 0 mm 0 W/m2
21:16 6.2 °C 1.3 °C 1021.2 hPa Calm     71% 0 mm 0 W/m2
21:22 6.2 °C 1.3 °C 1021.2 hPa Calm     71% 0 mm 0 W/m2
21:28 6.2 °C 1.3 °C 1021.2 hPa Calm     71% 0 mm 0 W/m2
21:34 6.1 °C 1.2 °C 1021.2 hPa Calm     71% 0 mm 0 W/m2
21:40 6.1 °C 1.4 °C 1021.2 hPa Calm   3.2 km/h 72% 0 mm 0 W/m2
21:46 6.2 °C 1.5 °C 1021.6 hPa NW 1.6 km/h 3.2 km/h 72% 0 mm 0 W/m2
21:52 6.1 °C 1.4 °C 1021.6 hPa Calm     72% 0 mm 0 W/m2
21:58 6.1 °C 1.4 °C 1021.6 hPa Calm     72% 0 mm 0 W/m2
22:04 5.9 °C 1.3 °C 1021.9 hPa Calm   1.6 km/h 72% 0 mm 0 W/m2
22:10 5.8 °C 1.4 °C 1021.9 hPa Calm     73% 0 mm 0 W/m2
22:16 5.8 °C 1.3 °C 1021.9 hPa Calm   3.2 km/h 73% 0 mm 0 W/m2
22:22 5.7 °C 1.2 °C 1021.9 hPa Calm     73% 0 mm 0 W/m2
22:28 5.6 °C 1.3 °C 1021.9 hPa Calm   1.6 km/h 74% 0 mm 0 W/m2
22:34 5.4 °C 1.2 °C 1021.9 hPa Calm     74% 0 mm 0 W/m2
22:40 5.3 °C 1.3 °C 1021.9 hPa Calm     75% 0 mm 0 W/m2
22:46 5.2 °C 1.2 °C 1021.9 hPa Calm   3.2 km/h 75% 0 mm 0 W/m2
22:52 5.1 °C 1.1 °C 1021.9 hPa Calm   1.6 km/h 75% 0 mm 0 W/m2
22:58 5 °C 1.1 °C 1021.9 hPa Calm   1.6 km/h 76% 0 mm 0 W/m2
23:04 4.9 °C 1.2 °C 1022.2 hPa Calm     77% 0 mm 0 W/m2
23:10 4.8 °C 1.3 °C 1022.2 hPa Calm     78% 0 mm 0 W/m2
23:16 4.7 °C 1.2 °C 1022.2 hPa Calm   1.6 km/h 78% 0 mm 0 W/m2
23:22 4.6 °C 1.3 °C 1022.2 hPa NW 1.6 km/h 6.4 km/h 79% 0 mm 0 W/m2
23:28 4.6 °C 1.4 °C 1022.2 hPa NW 1.6 km/h 6.4 km/h 80% 0 mm 0 W/m2
23:34 4.5 °C 1.3 °C 1022.2 hPa NW 1.6 km/h 1.6 km/h 80% 0 mm 0 W/m2
23:40 4.4 °C 1.4 °C 1022.6 hPa Calm   1.6 km/h 81% 0 mm 0 W/m2
23:46 4.4 °C 1.4 °C 1022.6 hPa Calm   1.6 km/h 81% 0 mm 0 W/m2
23:52 4.2 °C 1.2 °C 1022.6 hPa Calm     81% 0 mm 0 W/m2
23:58 4.1 °C 1.3 °C 1022.9 hPa Calm     82% 0 mm 0 W/m2
Country Meadow, Clay, NY, USA
Compliments of Weather Underground - 2 mb